Time,TemperatureF,DewpointF,PressureIn,WindDirection,WindDirectionDegrees,WindSpeedMPH,WindSpeedGustMPH,Humidity,HourlyPrecipIn,Conditions,Clouds,dailyrainin,SoftwareType,DateUTC
2013-02-28 00:00:00,32.2,31.4,29.57,North,350,2.0,2.0,97,0.00,CLR,,0.27,WeatherDisplay:10.37,2013-02-28 05:00:00,
2013-02-28 00:01:00,32.2,31.4,29.57,North,350,2.3,2.3,97,0.00,RA,,0.00,WeatherDisplay:10.37,2013-02-28 05:01:00,
2013-02-28 00:02:00,32.2,31.4,29.57,North,351,2.3,0.0,97,0.00,RA,,0.00,WeatherDisplay:10.37,2013-02-28 05:02:00,
2013-02-28 00:07:00,32.2,31.4,29.57,NW,325,2.3,2.3,97,0.00,RA,,0.00,WeatherDisplay:10.37,2013-02-28 05:07:00,
2013-02-28 00:12:00,32.2,31.4,29.57,NW,318,3.5,3.5,97,0.00,CLR,,0.00,WeatherDisplay:10.37,2013-02-28 05:12:00,
2013-02-28 00:17:00,32.2,31.4,29.57,WNW,295,3.5,3.5,97,0.00,CLR,,0.00,WeatherDisplay:10.37,2013-02-28 05:17:00,
2013-02-28 00:22:00,32.2,31.4,29.57,WNW,303,3.5,0.0,97,0.00,CLR,,0.00,WeatherDisplay:10.37,2013-02-28 05:22:00,
2013-02-28 00:27:00,32.2,31.4,29.57,NW,317,3.5,3.5,97,0.00,CLR,,0.00,WeatherDisplay:10.37,2013-02-28 05:27:00,
2013-02-28 00:32:00,32.1,31.3,29.57,NW,319,2.0,2.0,97,0.00,CLR,,0.00,WeatherDisplay:10.37,2013-02-28 05:32:00,
2013-02-28 00:37:00,32.1,31.3,29.57,NNW,331,3.5,3.5,97,0.00,CLR,,0.00,WeatherDisplay:10.37,2013-02-28 05:37:00,
2013-02-28 00:42:00,32.1,31.3,29.57,NNW,333,1.1,0.0,97,0.01,RA,,0.01,WeatherDisplay:10.37,2013-02-28 05:42:00,
2013-02-28 00:47:00,32.1,31.3,29.57,NNW,338,4.6,4.6,97,0.01,RA,,0.01,WeatherDisplay:10.37,2013-02-28 05:47:00,
2013-02-28 00:52:00,32.1,31.3,29.57,North,355,0.0,0.0,97,0.01,CLR,,0.01,WeatherDisplay:10.37,2013-02-28 05:52:00,
2013-02-28 00:57:00,32.1,31.3,29.57,NW,323,3.5,0.0,97,0.01,CLR,,0.01,WeatherDisplay:10.37,2013-02-28 05:57:00,
2013-02-28 01:02:00,32.1,31.3,29.57,NW,319,3.5,3.5,97,0.01,CLR,,0.01,WeatherDisplay:10.37,2013-02-28 06:02:00,
2013-02-28 01:07:00,32.1,31.3,29.57,NW,309,3.5,3.5,97,0.01,CLR,,0.01,WeatherDisplay:10.37,2013-02-28 06:07:00,
2013-02-28 01:12:00,32.1,31.3,29.57,WNW,293,2.3,2.3,97,0.01,CLR,,0.01,WeatherDisplay:10.37,2013-02-28 06:12:00,
2013-02-28 01:17:00,32.1,31.3,29.57,NNW,327,1.1,0.0,97,0.01,CLR,,0.01,WeatherDisplay:10.37,2013-02-28 06:17:00,
2013-02-28 01:22:00,32.1,31.3,29.57,North,10,2.3,2.3,97,0.01,CLR,,0.01,WeatherDisplay:10.37,2013-02-28 06:22:00,
2013-02-28 01:27:00,32.1,31.3,29.57,NNW,342,4.0,4.0,97,0.01,CLR,,0.01,WeatherDisplay:10.37,2013-02-28 06:27:00,
2013-02-28 01:32:00,32.1,31.3,29.57,NW,307,6.0,6.0,97,0.01,CLR,,0.01,WeatherDisplay:10.37,2013-02-28 06:32:00,
2013-02-28 01:37:00,32.1,31.3,29.57,WNW,301,0.0,0.0,97,0.01,CLR,,0.01,WeatherDisplay:10.37,2013-02-28 06:37:00,
2013-02-28 01:42:00,32.1,31.3,29.57,NNW,329,0.0,0.0,97,0.00,CLR,,0.01,WeatherDisplay:10.37,2013-02-28 06:42:00,
2013-02-28 01:47:00,32.1,31.3,29.58,North,351,3.0,3.0,97,0.00,CLR,,0.01,WeatherDisplay:10.37,2013-02-28 06:47:00,
2013-02-28 01:52:00,32.1,31.3,29.58,WNW,302,3.0,3.0,97,0.00,CLR,,0.01,WeatherDisplay:10.37,2013-02-28 06:52:00,
2013-02-28 01:57:00,32.1,31.3,29.58,NW,310,4.0,4.0,97,0.00,CLR,,0.01,WeatherDisplay:10.37,2013-02-28 06:57:00,
2013-02-28 02:02:00,32.1,31.3,29.58,NW,326,4.0,4.0,97,0.00,CLR,,0.01,WeatherDisplay:10.37,2013-02-28 07:02:00,
2013-02-28 02:07:00,32.0,31.2,29.58,WNW,301,2.3,2.3,97,0.00,CLR,,0.01,WeatherDisplay:10.37,2013-02-28 07:07:00,
2013-02-28 02:12:00,32.0,31.0,29.58,NW,319,4.0,4.0,96,0.00,CLR,,0.01,WeatherDisplay:10.37,2013-02-28 07:12:00,
2013-02-28 02:17:00,32.0,31.0,29.58,North,355,0.0,0.0,96,0.00,CLR,,0.01,WeatherDisplay:10.37,2013-02-28 07:17:00,
2013-02-28 02:22:00,32.0,31.0,29.58,WNW,303,4.6,4.6,96,0.00,CLR,,0.01,WeatherDisplay:10.37,2013-02-28 07:22:00,
2013-02-28 02:27:00,32.0,31.0,29.58,WNW,299,4.6,4.6,96,0.00,CLR,,0.01,WeatherDisplay:10.37,2013-02-28 07:27:00,
2013-02-28 02:32:00,31.9,30.9,29.58,WNW,302,3.5,3.5,96,0.00,CLR,,0.01,WeatherDisplay:10.37,2013-02-28 07:32:00,
2013-02-28 02:37:00,31.9,30.9,29.58,NNW,329,4.6,0.0,96,0.00,CLR,,0.01,WeatherDisplay:10.37,2013-02-28 07:37:00,
2013-02-28 02:42:00,31.9,30.9,29.58,WNW,293,3.5,3.5,96,0.00,CLR,,0.01,WeatherDisplay:10.37,2013-02-28 07:42:00,
2013-02-28 02:47:00,31.9,30.9,29.58,NNW,341,3.5,3.5,96,0.00,CLR,,0.01,WeatherDisplay:10.37,2013-02-28 07:47:00,
2013-02-28 02:52:00,31.8,30.8,29.58,NNW,340,2.3,0.0,96,0.00,CLR,,0.01,WeatherDisplay:10.37,2013-02-28 07:52:00,
2013-02-28 02:57:00,31.8,30.8,29.58,WNW,292,5.8,0.0,96,0.00,CLR,,0.01,WeatherDisplay:10.37,2013-02-28 07:57:00,
2013-02-28 03:02:00,31.7,30.7,29.58,NW,311,6.0,6.0,96,0.00,CLR,,0.01,WeatherDisplay:10.37,2013-02-28 08:02:00,
2013-02-28 03:07:00,31.7,30.7,29.58,NNW,335,3.5,3.5,96,0.00,CLR,,0.01,WeatherDisplay:10.37,2013-02-28 08:07:00,
2013-02-28 03:12:00,31.7,30.7,29.58,NW,325,6.0,6.0,96,0.00,CLR,,0.01,WeatherDisplay:10.37,2013-02-28 08:12:00,
2013-02-28 03:17:00,31.7,30.7,29.58,NW,307,3.0,3.0,96,0.00,CLR,,0.01,WeatherDisplay:10.37,2013-02-28 08:17:00,
2013-02-28 03:22:00,31.7,30.7,29.58,NNW,346,4.0,4.0,96,0.00,CLR,,0.01,WeatherDisplay:10.37,2013-02-28 08:22:00,
2013-02-28 03:27:00,31.7,30.7,29.58,NW,321,3.5,3.5,96,0.00,CLR,,0.01,WeatherDisplay:10.37,2013-02-28 08:27:00,
2013-02-28 03:32:00,31.6,30.6,29.58,NW,319,2.0,2.0,96,0.00,CLR,,0.01,WeatherDisplay:10.37,2013-02-28 08:32:00,
2013-02-28 03:37:00,31.6,30.6,29.58,WNW,298,2.0,2.0,96,0.00,CLR,,0.01,WeatherDisplay:10.37,2013-02-28 08:37:00,
2013-02-28 03:42:00,31.6,30.6,29.58,WNW,300,3.5,3.5,96,0.00,CLR,,0.01,WeatherDisplay:10.37,2013-02-28 08:42:00,
2013-02-28 03:47:00,31.6,30.6,29.58,NNW,327,3.5,0.0,96,0.00,CLR,,0.01,WeatherDisplay:10.37,2013-02-28 08:47:00,
2013-02-28 03:52:00,31.6,30.6,29.58,WNW,302,3.5,3.5,96,0.00,CLR,,0.01,WeatherDisplay:10.37,2013-02-28 08:52:00,
2013-02-28 03:57:00,31.6,30.6,29.59,NNW,338,3.5,3.5,96,0.00,CLR,,0.01,WeatherDisplay:10.37,2013-02-28 08:57:00,
2013-02-28 04:02:00,31.6,30.6,29.59,NNW,331,3.5,3.5,96,0.00,CLR,,0.01,WeatherDisplay:10.37,2013-02-28 09:02:00,
2013-02-28 04:07:00,31.6,30.6,29.59,NW,321,4.0,4.0,96,0.00,CLR,,0.01,WeatherDisplay:10.37,2013-02-28 09:07:00,
2013-02-28 04:12:00,31.7,30.7,29.59,NNW,341,4.0,4.0,96,0.00,CLR,,0.01,WeatherDisplay:10.37,2013-02-28 09:12:00,
2013-02-28 04:17:00,31.7,30.7,29.59,North,355,1.0,1.0,96,0.00,CLR,,0.01,WeatherDisplay:10.37,2013-02-28 09:17:00,
2013-02-28 04:22:00,31.7,30.7,29.59,NNW,346,3.5,3.5,96,0.00,CLR,,0.01,WeatherDisplay:10.37,2013-02-28 09:22:00,
2013-02-28 04:27:00,31.7,30.7,29.59,North,355,3.5,3.5,96,0.00,CLR,,0.01,WeatherDisplay:10.37,2013-02-28 09:27:00,
2013-02-28 04:32:00,31.8,30.8,29.59,NNW,343,0.0,0.0,96,0.00,CLR,,0.01,WeatherDisplay:10.37,2013-02-28 09:32:00,
2013-02-28 04:37:00,31.8,30.8,29.60,WNW,303,2.3,2.3,96,0.00,CLR,,0.01,WeatherDisplay:10.37,2013-02-28 09:37:00,
2013-02-28 04:42:00,31.9,30.9,29.60,NW,308,2.3,2.3,96,0.00,CLR,,0.01,WeatherDisplay:10.37,2013-02-28 09:42:00,
2013-02-28 04:47:00,31.9,30.9,29.60,NNW,337,5.0,5.0,96,0.00,CLR,,0.01,WeatherDisplay:10.37,2013-02-28 09:47:00,
2013-02-28 04:52:00,31.9,30.9,29.60,NNW,336,2.3,0.0,96,0.00,CLR,,0.01,WeatherDisplay:10.37,2013-02-28 09:52:00,
2013-02-28 04:57:00,31.9,30.9,29.61,NNW,346,3.5,0.0,96,0.00,CLR,,0.01,WeatherDisplay:10.37,2013-02-28 09:57:00,
2013-02-28 05:02:00,32.0,31.0,29.61,NNW,348,2.0,2.0,96,0.00,CLR,,0.01,WeatherDisplay:10.37,2013-02-28 10:02:00,
2013-02-28 05:07:00,32.0,31.0,29.61,WNW,293,0.0,0.0,96,0.00,CLR,,0.01,WeatherDisplay:10.37,2013-02-28 10:07:00,
2013-02-28 05:12:00,31.9,30.9,29.61,NW,304,4.0,4.0,96,0.00,CLR,,0.01,WeatherDisplay:10.37,2013-02-28 10:12:00,
2013-02-28 05:17:00,32.0,31.0,29.61,NNW,338,5.0,5.0,96,0.00,CLR,,0.01,WeatherDisplay:10.37,2013-02-28 10:17:00,
2013-02-28 05:22:00,32.0,31.0,29.61,NNW,327,0.0,0.0,96,0.00,CLR,,0.01,WeatherDisplay:10.37,2013-02-28 10:22:00,
2013-02-28 05:27:00,31.9,30.6,29.61,NNW,331,3.5,3.5,95,0.00,CLR,,0.01,WeatherDisplay:10.37,2013-02-28 10:27:00,
2013-02-28 05:32:00,31.9,30.9,29.62,NW,306,0.0,0.0,96,0.00,CLR,,0.01,WeatherDisplay:10.37,2013-02-28 10:32:00,
2013-02-28 05:37:00,32.0,31.0,29.62,NW,315,2.3,2.3,96,0.00,CLR,,0.01,WeatherDisplay:10.37,2013-02-28 10:37:00,
2013-02-28 05:42:00,32.0,31.0,29.62,WNW,302,5.0,5.0,96,0.00,CLR,,0.01,WeatherDisplay:10.37,2013-02-28 10:42:00,
2013-02-28 05:47:00,32.1,31.1,29.62,North,349,2.3,2.3,96,0.00,CLR,,0.01,WeatherDisplay:10.37,2013-02-28 10:47:00,
2013-02-28 05:52:00,32.1,31.1,29.63,NNW,337,4.0,4.0,96,0.00,CLR,,0.01,WeatherDisplay:10.37,2013-02-28 10:52:00,
2013-02-28 05:57:00,32.1,31.1,29.63,NNW,345,3.5,3.5,96,0.00,CLR,,0.01,WeatherDisplay:10.37,2013-02-28 10:57:00,
2013-02-28 06:02:00,32.1,31.1,29.63,NW,309,3.5,3.5,96,0.00,CLR,,0.01,WeatherDisplay:10.37,2013-02-28 11:02:00,
2013-02-28 06:07:00,32.2,31.2,29.63,NW,317,0.0,0.0,96,0.00,CLR,,0.01,WeatherDisplay:10.37,2013-02-28 11:07:00,
2013-02-28 06:12:00,32.2,31.2,29.63,NW,304,5.8,5.8,96,0.00,CLR,,0.01,WeatherDisplay:10.37,2013-02-28 11:12:00,
2013-02-28 06:17:00,32.3,31.0,29.64,NW,319,3.5,3.5,95,0.00,CLR,,0.01,WeatherDisplay:10.37,2013-02-28 11:17:00,
2013-02-28 06:22:00,32.4,31.4,29.64,NW,310,3.5,0.0,96,0.00,CLR,,0.01,WeatherDisplay:10.37,2013-02-28 11:22:00,
2013-02-28 06:27:00,32.5,31.2,29.64,NW,325,2.3,0.0,95,0.00,CLR,,0.01,WeatherDisplay:10.37,2013-02-28 11:27:00,
2013-02-28 06:32:00,32.5,31.2,29.64,North,351,2.3,2.3,95,0.00,CLR,,0.01,WeatherDisplay:10.37,2013-02-28 11:32:00,
2013-02-28 06:37:00,32.5,31.2,29.65,NW,319,0.0,0.0,95,0.00,CLR,,0.01,WeatherDisplay:10.37,2013-02-28 11:37:00,
2013-02-28 06:42:00,32.5,31.2,29.65,WNW,294,3.5,3.5,95,0.00,CLR,,0.01,WeatherDisplay:10.37,2013-02-28 11:42:00,
2013-02-28 06:47:00,32.6,31.3,29.65,NNW,340,3.5,0.0,95,0.00,CLR,,0.01,WeatherDisplay:10.37,2013-02-28 11:47:00,
2013-02-28 06:52:00,32.6,31.3,29.65,NNW,331,6.0,6.0,95,0.00,CLR,,0.01,WeatherDisplay:10.37,2013-02-28 11:52:00,
2013-02-28 06:57:00,32.6,31.3,29.65,NNW,333,0.0,0.0,95,0.00,CLR,,0.01,WeatherDisplay:10.37,2013-02-28 11:57:00,
2013-02-28 07:02:00,32.6,31.3,29.65,WNW,302,10.4,10.4,95,0.00,CLR,,0.01,WeatherDisplay:10.37,2013-02-28 12:02:00,
2013-02-28 07:07:00,32.6,31.1,29.65,NW,321,6.0,6.0,94,0.00,CLR,,0.01,WeatherDisplay:10.37,2013-02-28 12:07:00,
2013-02-28 07:12:00,32.6,31.1,29.66,NW,321,4.0,4.0,94,0.00,CLR,,0.01,WeatherDisplay:10.37,2013-02-28 12:12:00,
2013-02-28 07:17:00,32.7,31.2,29.66,NNW,339,2.3,0.0,94,0.00,CLR,,0.01,WeatherDisplay:10.37,2013-02-28 12:17:00,
2013-02-28 07:22:00,32.6,31.1,29.66,NNW,331,2.0,2.0,94,0.00,CLR,,0.01,WeatherDisplay:10.37,2013-02-28 12:22:00,
2013-02-28 07:27:00,32.6,31.1,29.66,WNW,302,6.9,6.9,94,0.00,CLR,,0.01,WeatherDisplay:10.37,2013-02-28 12:27:00,
2013-02-28 07:32:00,32.6,31.1,29.66,WNW,297,4.0,4.0,94,0.00,CLR,,0.01,WeatherDisplay:10.37,2013-02-28 12:32:00,
2013-02-28 07:37:00,32.6,31.1,29.67,NNW,327,8.0,8.0,94,0.00,CLR,,0.01,WeatherDisplay:10.37,2013-02-28 12:37:00,
2013-02-28 07:42:00,32.6,30.8,29.67,NW,323,2.3,2.3,93,0.00,CLR,,0.01,WeatherDisplay:10.37,2013-02-28 12:42:00,
2013-02-28 07:47:00,32.7,30.9,29.67,NW,326,11.5,11.5,93,0.00,CLR,,0.01,WeatherDisplay:10.37,2013-02-28 12:47:00,
2013-02-28 07:52:00,32.7,30.9,29.67,NNW,329,3.0,3.0,93,0.00,CLR,,0.01,WeatherDisplay:10.37,2013-02-28 12:52:00,
2013-02-28 07:57:00,32.6,30.5,29.68,WNW,289,4.6,4.6,92,0.00,CLR,,0.01,WeatherDisplay:10.37,2013-02-28 12:57:00,
2013-02-28 08:02:00,32.7,30.6,29.68,NNW,331,6.0,6.0,92,0.00,CLR,,0.01,WeatherDisplay:10.37,2013-02-28 13:02:00,
2013-02-28 08:07:00,32.8,30.7,29.68,North,9,6.0,6.0,92,0.00,CLR,,0.01,WeatherDisplay:10.37,2013-02-28 13:07:00,
2013-02-28 08:12:00,32.8,30.5,29.68,NNW,327,3.5,3.5,91,0.00,CLR,,0.01,WeatherDisplay:10.37,2013-02-28 13:12:00,
2013-02-28 08:17:00,32.8,30.5,29.68,NW,319,3.5,3.5,91,0.00,CLR,,0.01,WeatherDisplay:10.37,2013-02-28 13:17:00,
2013-02-28 08:22:00,32.9,30.6,29.69,NW,325,5.8,5.8,91,0.00,CLR,,0.01,WeatherDisplay:10.37,2013-02-28 13:22:00,
2013-02-28 08:27:00,32.9,30.3,29.69,WNW,301,4.6,4.6,90,0.00,CLR,,0.01,WeatherDisplay:10.37,2013-02-28 13:27:00,
2013-02-28 08:32:00,33.1,30.5,29.69,NW,323,5.8,5.8,90,0.00,CLR,,0.01,WeatherDisplay:10.37,2013-02-28 13:32:00,
2013-02-28 08:37:00,33.1,30.5,29.69,NNW,338,3.5,3.5,90,0.00,CLR,,0.01,WeatherDisplay:10.37,2013-02-28 13:37:00,
2013-02-28 08:43:00,33.1,30.2,29.70,NNW,337,6.9,6.9,89,0.00,CLR,,0.01,WeatherDisplay:10.37,2013-02-28 13:43:00,
2013-02-28 08:48:00,33.2,30.3,29.70,North,355,3.5,3.5,89,0.00,CLR,,0.01,WeatherDisplay:10.37,2013-02-28 13:48:00,
2013-02-28 08:53:00,33.3,30.4,29.70,NW,325,10.4,10.4,89,0.00,CLR,,0.01,WeatherDisplay:10.37,2013-02-28 13:53:00,
2013-02-28 08:58:00,33.3,30.4,29.71,WNW,283,11.0,11.0,89,0.00,CLR,,0.01,WeatherDisplay:10.37,2013-02-28 13:58:00,
2013-02-28 09:03:00,33.4,30.2,29.71,NNW,329,11.5,11.5,88,0.01,RA,,0.02,WeatherDisplay:10.37,2013-02-28 14:03:00,
2013-02-28 09:08:00,33.4,30.2,29.71,North,360,4.6,4.6,88,0.01,RA,,0.02,WeatherDisplay:10.37,2013-02-28 14:08:00,
2013-02-28 09:13:00,33.6,30.4,29.72,North,5,6.0,6.0,88,0.01,CLR,,0.02,WeatherDisplay:10.37,2013-02-28 14:13:00,
2013-02-28 09:18:00,33.7,30.5,29.72,WNW,302,5.8,5.8,88,0.01,CLR,,0.02,WeatherDisplay:10.37,2013-02-28 14:18:00,
2013-02-28 09:23:00,33.8,30.6,29.72,NW,313,7.0,7.0,88,0.02,RA,,0.03,WeatherDisplay:10.37,2013-02-28 14:23:00,
2013-02-28 09:28:00,33.8,30.3,29.72,NNW,348,5.8,5.8,87,0.02,RA,,0.03,WeatherDisplay:10.37,2013-02-28 14:28:00,
2013-02-28 09:33:00,33.7,30.0,29.72,North,5,9.0,9.0,86,0.02,,,0.03,WeatherDisplay:10.37,2013-02-28 14:33:00,
2013-02-28 09:38:00,33.7,30.0,29.72,NW,324,6.9,6.9,86,0.02,CLR,,0.03,WeatherDisplay:10.37,2013-02-28 14:38:00,
2013-02-28 09:43:00,33.7,29.7,29.72,NNE,21,7.0,7.0,85,0.02,CLR,,0.03,WeatherDisplay:10.37,2013-02-28 14:43:00,
2013-02-28 09:49:00,34.0,30.0,29.73,North,360,12.0,12.0,85,0.03,RA,,0.04,WeatherDisplay:10.37,2013-02-28 14:49:00,
2013-02-28 09:54:00,34.0,29.7,29.73,North,5,9.2,9.2,84,0.03,RA,,0.04,WeatherDisplay:10.37,2013-02-28 14:54:00,
2013-02-28 09:59:00,33.9,29.9,29.73,NNE,13,6.0,6.0,85,0.03,,,0.04,WeatherDisplay:10.37,2013-02-28 14:59:00,
2013-02-28 10:04:00,33.7,29.4,29.73,North,355,5.8,5.8,84,0.02,CLR,,0.04,WeatherDisplay:10.37,2013-02-28 15:04:00,
2013-02-28 10:09:00,33.5,29.5,29.73,North,351,7.0,7.0,85,0.03,RA,,0.05,WeatherDisplay:10.37,2013-02-28 15:09:00,
2013-02-28 10:14:00,33.4,29.4,29.73,NW,319,4.6,4.6,85,0.03,RA,,0.05,WeatherDisplay:10.37,2013-02-28 15:14:00,
2013-02-28 10:19:00,33.4,29.4,29.73,NNW,331,6.0,6.0,85,0.03,,,0.05,WeatherDisplay:10.37,2013-02-28 15:19:00,
2013-02-28 10:24:00,33.2,29.2,29.74,NNW,327,4.6,4.6,85,0.02,CLR,,0.05,WeatherDisplay:10.37,2013-02-28 15:24:00,
2013-02-28 10:29:00,33.2,29.2,29.74,North,360,3.5,3.5,85,0.02,CLR,,0.05,WeatherDisplay:10.37,2013-02-28 15:29:00,
2013-02-28 10:34:00,33.2,29.5,29.74,NW,308,4.6,4.6,86,0.02,CLR,,0.05,WeatherDisplay:10.37,2013-02-28 15:34:00,
2013-02-28 10:39:00,33.3,29.3,29.74,NNW,329,11.5,11.5,85,0.03,RA,,0.06,WeatherDisplay:10.37,2013-02-28 15:39:00,
2013-02-28 10:44:00,33.3,29.3,29.74,NNW,341,8.1,8.1,85,0.03,RA,,0.06,WeatherDisplay:10.37,2013-02-28 15:44:00,
2013-02-28 10:49:00,33.3,29.0,29.74,NW,321,4.6,4.6,84,0.02,,,0.06,WeatherDisplay:10.37,2013-02-28 15:49:00,
2013-02-28 10:54:00,33.3,29.0,29.75,NW,317,6.9,6.9,84,0.02,CLR,,0.06,WeatherDisplay:10.37,2013-02-28 15:54:00,
2013-02-28 10:59:00,33.2,28.9,29.75,North,360,9.2,9.2,84,0.02,CLR,,0.06,WeatherDisplay:10.37,2013-02-28 15:59:00,
2013-02-28 11:04:00,33.4,29.1,29.75,WNW,297,9.2,9.2,84,0.02,CLR,,0.06,WeatherDisplay:10.37,2013-02-28 16:04:00,
2013-02-28 11:10:00,33.5,29.2,29.75,NW,326,6.9,6.9,84,0.01,CLR,,0.06,WeatherDisplay:10.37,2013-02-28 16:10:00,
2013-02-28 11:15:00,33.7,29.1,29.75,NW,311,3.5,3.5,83,0.01,CLR,,0.06,WeatherDisplay:10.37,2013-02-28 16:15:00,
2013-02-28 11:20:00,33.5,28.9,29.75,North,360,5.8,5.8,83,0.01,CLR,,0.06,WeatherDisplay:10.37,2013-02-28 16:20:00,
2013-02-28 11:25:00,33.3,28.7,29.75,WNW,291,6.0,6.0,83,0.02,RA,,0.07,WeatherDisplay:10.37,2013-02-28 16:25:00,
2013-02-28 11:30:00,33.3,28.4,29.75,NE,42,9.2,9.2,82,0.02,RA,,0.07,WeatherDisplay:10.37,2013-02-28 16:30:00,
2013-02-28 11:35:00,33.4,28.5,29.76,SSE,147,3.5,3.5,82,0.02,CLR,,0.07,WeatherDisplay:10.37,2013-02-28 16:35:00,
2013-02-28 11:42:00,33.5,28.6,29.76,ENE,61,10.4,10.4,82,0.01,CLR,,0.07,WeatherDisplay:10.37,2013-02-28 16:42:00,
2013-02-28 11:48:00,33.4,28.2,29.76,WNW,300,8.0,8.0,81,0.01,CLR,,0.07,WeatherDisplay:10.37,2013-02-28 16:48:00,
2013-02-28 11:53:00,33.3,28.4,29.76,North,360,6.9,6.9,82,0.01,CLR,,0.08,WeatherDisplay:10.37,2013-02-28 16:53:00,
2013-02-28 11:58:00,33.3,28.4,29.76,NNW,327,5.0,5.0,82,0.02,RA,,0.08,WeatherDisplay:10.37,2013-02-28 16:58:00,
2013-02-28 12:03:00,33.4,28.8,29.77,North,5,1.1,0.0,83,0.02,RA,,0.08,WeatherDisplay:10.37,2013-02-28 17:03:00,
2013-02-28 12:08:00,33.4,28.2,29.77,SW,233,6.9,6.9,81,0.02,CLR,,0.08,WeatherDisplay:10.37,2013-02-28 17:08:00,
2013-02-28 12:13:00,33.4,28.8,29.77,North,360,5.0,5.0,83,0.02,CLR,,0.08,WeatherDisplay:10.37,2013-02-28 17:13:00,
2013-02-28 12:18:00,33.6,28.7,29.77,West,279,7.0,7.0,82,0.02,CLR,,0.08,WeatherDisplay:10.37,2013-02-28 17:18:00,
2013-02-28 12:23:00,33.7,28.8,29.77,NNW,336,4.0,4.0,82,0.01,CLR,,0.08,WeatherDisplay:10.37,2013-02-28 17:23:00,
2013-02-28 12:28:00,33.5,28.0,29.77,NNW,330,9.2,9.2,80,0.01,CLR,,0.08,WeatherDisplay:10.37,2013-02-28 17:28:00,
2013-02-28 12:33:00,33.4,27.9,29.77,WNW,295,15.0,15.0,80,0.01,CLR,,0.08,WeatherDisplay:10.37,2013-02-28 17:33:00,
2013-02-28 12:38:00,33.5,28.0,29.77,NNW,337,3.5,0.0,80,0.01,CLR,,0.08,WeatherDisplay:10.37,2013-02-28 17:38:00,
2013-02-28 12:43:00,33.7,27.9,29.77,NNE,13,11.0,11.0,79,0.02,RA,,0.09,WeatherDisplay:10.37,2013-02-28 17:43:00,
2013-02-28 12:49:00,33.9,28.1,29.77,NNE,24,8.0,8.0,79,0.02,RA,,0.09,WeatherDisplay:10.37,2013-02-28 17:49:00,
2013-02-28 12:54:00,34.2,28.1,29.77,NW,317,3.5,3.5,78,0.01,CLR,,0.09,WeatherDisplay:10.37,2013-02-28 17:54:00,
2013-02-28 12:59:00,34.3,27.8,29.77,North,355,6.9,6.9,77,0.01,CLR,,0.09,WeatherDisplay:10.37,2013-02-28 17:59:00,
2013-02-28 13:04:00,34.3,28.2,29.77,NW,319,5.8,5.8,78,0.02,RA,,0.10,WeatherDisplay:10.37,2013-02-28 18:04:00,
2013-02-28 13:09:00,34.3,28.2,29.77,North,9,4.6,4.6,78,0.02,RA,,0.10,WeatherDisplay:10.37,2013-02-28 18:09:00,
2013-02-28 13:14:00,34.3,28.2,29.78,NNE,20,3.5,3.5,78,0.02,CLR,,0.10,WeatherDisplay:10.37,2013-02-28 18:14:00,
2013-02-28 13:19:00,34.2,28.1,29.78,NNE,21,5.0,5.0,78,0.02,CLR,,0.10,WeatherDisplay:10.37,2013-02-28 18:19:00,
2013-02-28 13:24:00,34.1,27.6,29.78,WNW,286,5.0,5.0,77,0.02,CLR,,0.10,WeatherDisplay:10.37,2013-02-28 18:24:00,
2013-02-28 13:30:00,34.1,27.6,29.78,North,5,5.8,5.8,77,0.02,CLR,,0.10,WeatherDisplay:10.37,2013-02-28 18:30:00,
2013-02-28 13:35:00,34.2,27.7,29.78,NNW,336,6.9,6.9,77,0.02,CLR,,0.10,WeatherDisplay:10.37,2013-02-28 18:35:00,
2013-02-28 13:40:00,34.2,27.7,29.78,NNW,331,6.0,6.0,77,0.02,CLR,,0.10,WeatherDisplay:10.37,2013-02-28 18:40:00,
2013-02-28 13:45:00,34.2,27.7,29.78,NNW,344,7.0,7.0,77,0.01,CLR,,0.10,WeatherDisplay:10.37,2013-02-28 18:45:00,
2013-02-28 13:50:00,34.2,28.1,29.78,North,11,3.0,3.0,78,0.02,RA,,0.11,WeatherDisplay:10.37,2013-02-28 18:50:00,
2013-02-28 13:55:00,34.4,27.9,29.78,NNE,25,3.5,3.5,77,0.02,RA,,0.11,WeatherDisplay:10.37,2013-02-28 18:55:00,
2013-02-28 14:00:00,34.4,27.9,29.78,North,360,5.8,5.8,77,0.01,CLR,,0.11,WeatherDisplay:10.37,2013-02-28 19:00:00,
2013-02-28 14:05:00,34.4,28.2,29.78,North,350,5.0,5.0,78,0.01,CLR,,0.11,WeatherDisplay:10.37,2013-02-28 19:05:00,
2013-02-28 14:10:00,34.4,27.9,29.78,NW,326,5.8,5.8,77,0.01,CLR,,0.11,WeatherDisplay:10.37,2013-02-28 19:10:00,
2013-02-28 14:15:00,34.3,27.8,29.79,NW,325,3.5,0.0,77,0.01,CLR,,0.11,WeatherDisplay:10.37,2013-02-28 19:15:00,
2013-02-28 14:20:00,34.4,27.9,29.79,WNW,300,11.5,11.5,77,0.02,RA,,0.12,WeatherDisplay:10.37,2013-02-28 19:20:00,
2013-02-28 14:25:00,34.2,27.7,29.79,North,355,9.2,9.2,77,0.02,RA,,0.12,WeatherDisplay:10.37,2013-02-28 19:25:00,
2013-02-28 14:30:00,34.0,27.9,29.79,NW,325,2.0,2.0,78,0.02,,,0.12,WeatherDisplay:10.37,2013-02-28 19:30:00,
2013-02-28 14:35:00,33.9,27.4,29.80,WNW,299,7.0,7.0,77,0.02,CLR,,0.12,WeatherDisplay:10.37,2013-02-28 19:35:00,
2013-02-28 14:40:00,34.0,27.9,29.79,NNW,337,3.5,3.5,78,0.02,CLR,,0.12,WeatherDisplay:10.37,2013-02-28 19:40:00,
2013-02-28 14:45:00,34.0,27.5,29.80,NNW,348,3.5,3.5,77,0.02,CLR,,0.12,WeatherDisplay:10.37,2013-02-28 19:45:00,
2013-02-28 14:50:00,34.2,27.7,29.79,NNW,346,3.5,3.5,77,0.01,CLR,,0.12,WeatherDisplay:10.37,2013-02-28 19:50:00,
2013-02-28 14:55:00,34.2,27.7,29.79,NW,324,2.3,0.0,77,0.01,CLR,,0.12,WeatherDisplay:10.37,2013-02-28 19:55:00,
2013-02-28 15:00:00,34.3,27.8,29.80,WNW,297,1.1,0.0,77,0.01,CLR,,0.12,WeatherDisplay:10.37,2013-02-28 20:00:00,
2013-02-28 15:05:00,34.4,27.6,29.80,NNW,334,4.6,4.6,76,0.01,CLR,,0.12,WeatherDisplay:10.37,2013-02-28 20:05:00,
2013-02-28 15:10:00,34.3,27.8,29.80,WNW,288,10.0,10.0,77,0.01,CLR,,0.12,WeatherDisplay:10.37,2013-02-28 20:10:00,
2013-02-28 15:15:00,34.1,28.0,29.80,NW,318,3.5,3.5,78,0.01,CLR,,0.12,WeatherDisplay:10.37,2013-02-28 20:15:00,
2013-02-28 15:20:00,33.8,27.7,29.81,NNW,336,12.7,12.7,78,0.01,RA,,0.13,WeatherDisplay:10.37,2013-02-28 20:20:00,
2013-02-28 15:25:00,33.6,28.1,29.81,NNW,336,7.0,7.0,80,0.01,RA,,0.13,WeatherDisplay:10.37,2013-02-28 20:25:00,
2013-02-28 15:30:00,33.4,27.9,29.81,NW,321,6.0,6.0,80,0.01,,,0.13,WeatherDisplay:10.37,2013-02-28 20:30:00,
2013-02-28 15:35:00,33.4,27.3,29.82,North,360,4.6,4.6,78,0.01,CLR,,0.13,WeatherDisplay:10.37,2013-02-28 20:35:00,
2013-02-28 15:40:00,33.4,27.3,29.82,NNW,341,7.0,7.0,78,0.01,CLR,,0.13,WeatherDisplay:10.37,2013-02-28 20:40:00,
2013-02-28 15:45:00,33.4,27.3,29.82,NW,325,3.5,3.5,78,0.01,CLR,,0.13,WeatherDisplay:10.37,2013-02-28 20:45:00,
2013-02-28 15:50:00,33.4,27.0,29.82,NW,318,6.9,6.9,77,0.01,CLR,,0.13,WeatherDisplay:10.37,2013-02-28 20:50:00,
2013-02-28 15:55:00,33.3,26.9,29.82,North,360,3.0,3.0,77,0.01,CLR,,0.13,WeatherDisplay:10.37,2013-02-28 20:55:00,
2013-02-28 16:00:00,33.2,26.8,29.82,WSW,252,3.5,3.5,77,0.01,CLR,,0.13,WeatherDisplay:10.37,2013-02-28 21:00:00,
2013-02-28 16:05:00,33.1,27.0,29.83,WNW,302,4.6,4.6,78,0.01,CLR,,0.13,WeatherDisplay:10.37,2013-02-28 21:05:00,
2013-02-28 16:10:00,33.1,27.0,29.83,NW,312,2.0,0.0,78,0.01,CLR,,0.13,WeatherDisplay:10.37,2013-02-28 21:10:00,
2013-02-28 16:15:00,33.1,26.7,29.83,NNW,348,8.0,8.0,77,0.01,CLR,,0.13,WeatherDisplay:10.37,2013-02-28 21:15:00,
2013-02-28 16:20:00,32.8,26.4,29.83,North,5,6.9,6.9,77,0.00,CLR,,0.13,WeatherDisplay:10.37,2013-02-28 21:20:00,
2013-02-28 16:25:00,32.6,26.5,29.84,NW,315,3.5,3.5,78,0.00,CLR,,0.13,WeatherDisplay:10.37,2013-02-28 21:25:00,
2013-02-28 16:30:00,32.5,26.4,29.84,North,355,2.3,2.3,78,0.00,CLR,,0.13,WeatherDisplay:10.37,2013-02-28 21:30:00,
2013-02-28 16:35:00,32.4,26.6,29.84,NNW,342,4.6,4.6,79,0.00,CLR,,0.13,WeatherDisplay:10.37,2013-02-28 21:35:00,
2013-02-28 16:40:00,32.3,26.5,29.84,North,9,6.0,6.0,79,0.00,CLR,,0.13,WeatherDisplay:10.37,2013-02-28 21:40:00,
2013-02-28 16:45:00,32.2,26.4,29.85,WNW,300,2.3,0.0,79,0.00,CLR,,0.13,WeatherDisplay:10.37,2013-02-28 21:45:00,
2013-02-28 16:50:00,32.1,26.3,29.85,NNW,335,5.8,5.8,79,0.00,CLR,,0.13,WeatherDisplay:10.37,2013-02-28 21:50:00,
2013-02-28 16:55:00,32.0,26.5,29.85,NW,314,10.4,10.4,80,0.00,CLR,,0.13,WeatherDisplay:10.37,2013-02-28 21:55:00,
2013-02-28 17:00:00,31.7,26.2,29.85,North,10,6.9,6.9,80,0.00,CLR,,0.13,WeatherDisplay:10.37,2013-02-28 22:00:00,
2013-02-28 17:05:00,31.5,25.7,29.85,NW,317,6.9,6.9,79,0.00,CLR,,0.13,WeatherDisplay:10.37,2013-02-28 22:05:00,
2013-02-28 17:10:00,31.4,25.9,29.86,NW,319,6.0,6.0,80,0.00,CLR,,0.13,WeatherDisplay:10.37,2013-02-28 22:10:00,
2013-02-28 17:15:00,31.2,25.7,29.86,NNW,331,4.6,4.6,80,0.00,CLR,,0.13,WeatherDisplay:10.37,2013-02-28 22:15:00,
2013-02-28 17:20:00,31.1,25.7,29.86,NW,321,3.5,0.0,80,0.00,CLR,,0.13,WeatherDisplay:10.37,2013-02-28 22:20:00,
2013-02-28 17:25:00,31.2,25.7,29.86,NW,322,0.0,0.0,80,0.00,CLR,,0.13,WeatherDisplay:10.37,2013-02-28 22:25:00,
2013-02-28 17:30:00,31.1,25.7,29.87,NW,321,3.5,3.5,80,0.00,CLR,,0.13,WeatherDisplay:10.37,2013-02-28 22:30:00,
2013-02-28 17:35:00,31.0,25.2,29.87,North,360,9.2,9.2,79,0.00,CLR,,0.13,WeatherDisplay:10.37,2013-02-28 22:35:00,
2013-02-28 17:40:00,31.0,25.2,29.87,NNW,329,5.8,5.8,79,0.00,CLR,,0.13,WeatherDisplay:10.37,2013-02-28 22:40:00,
2013-02-28 17:45:00,30.9,25.2,29.87,NNW,329,10.4,10.4,79,0.00,CLR,,0.13,WeatherDisplay:10.37,2013-02-28 22:45:00,
2013-02-28 17:50:00,30.9,24.8,29.88,NW,319,4.6,4.6,78,0.00,CLR,,0.13,WeatherDisplay:10.37,2013-02-28 22:50:00,
2013-02-28 17:55:00,30.8,25.1,29.88,NNE,33,2.3,0.0,79,0.00,CLR,,0.13,WeatherDisplay:10.37,2013-02-28 22:55:00,
2013-02-28 18:00:00,30.7,25.0,29.88,North,10,3.5,3.5,79,0.00,CLR,,0.13,WeatherDisplay:10.37,2013-02-28 23:00:00,
2013-02-28 18:05:00,30.6,24.9,29.88,NNE,15,4.0,4.0,79,0.00,CLR,,0.13,WeatherDisplay:10.37,2013-02-28 23:05:00,
2013-02-28 18:10:00,30.5,25.1,29.89,North,11,3.5,0.0,80,0.00,CLR,,0.13,WeatherDisplay:10.37,2013-02-28 23:10:00,
2013-02-28 18:15:00,30.4,24.7,29.89,NW,325,4.0,4.0,79,0.00,CLR,,0.13,WeatherDisplay:10.37,2013-02-28 23:15:00,
2013-02-28 18:20:00,30.3,24.6,29.89,NW,325,5.0,5.0,79,0.00,CLR,,0.13,WeatherDisplay:10.37,2013-02-28 23:20:00,
2013-02-28 18:25:00,30.3,24.9,29.89,NW,325,5.8,5.8,80,0.00,CLR,,0.13,WeatherDisplay:10.37,2013-02-28 23:25:00,
2013-02-28 18:30:00,30.2,24.5,29.90,NNW,327,5.8,5.8,79,0.00,CLR,,0.13,WeatherDisplay:10.37,2013-02-28 23:30:00,
2013-02-28 18:35:00,30.2,24.8,29.90,North,5,3.5,3.5,80,0.00,CLR,,0.13,WeatherDisplay:10.37,2013-02-28 23:35:00,
2013-02-28 18:40:00,30.2,25.1,29.91,NNW,327,4.0,4.0,81,0.00,CLR,,0.13,WeatherDisplay:10.37,2013-02-28 23:40:00,
2013-02-28 18:45:00,30.1,25.0,29.91,NNE,18,6.0,6.0,81,0.00,CLR,,0.13,WeatherDisplay:10.37,2013-02-28 23:45:00,
2013-02-28 18:50:00,30.1,25.0,29.91,NNW,344,3.5,3.5,81,0.00,CLR,,0.13,WeatherDisplay:10.37,2013-02-28 23:50:00,
2013-02-28 18:56:00,30.1,25.3,29.91,NNW,344,3.5,3.5,82,0.00,CLR,,0.13,WeatherDisplay:10.37,2013-02-28 23:56:00,
2013-02-28 19:01:00,30.0,24.9,29.92,North,355,3.5,3.5,81,0.00,CLR,,0.13,WeatherDisplay:10.37,2013-03-01 00:01:00,
2013-02-28 19:06:00,29.9,25.1,29.92,NNE,14,3.5,0.0,82,0.00,CLR,,0.13,WeatherDisplay:10.37,2013-03-01 00:06:00,
2013-02-28 19:11:00,29.9,24.8,29.92,North,9,5.8,5.8,81,0.00,CLR,,0.13,WeatherDisplay:10.37,2013-03-01 00:11:00,
2013-02-28 19:16:00,29.8,24.7,29.92,NW,325,5.0,5.0,81,0.00,CLR,,0.13,WeatherDisplay:10.37,2013-03-01 00:16:00,
2013-02-28 19:21:00,29.7,24.6,29.93,North,349,2.3,2.3,81,0.00,CLR,,0.13,WeatherDisplay:10.37,2013-03-01 00:21:00,
2013-02-28 19:26:00,29.6,24.5,29.93,North,351,2.3,0.0,81,0.00,CLR,,0.13,WeatherDisplay:10.37,2013-03-01 00:26:00,
2013-02-28 19:31:00,29.6,24.5,29.93,NW,325,5.0,5.0,81,0.00,CLR,,0.13,WeatherDisplay:10.37,2013-03-01 00:31:00,
2013-02-28 19:36:00,29.6,24.5,29.93,North,350,3.0,3.0,81,0.00,CLR,,0.13,WeatherDisplay:10.37,2013-03-01 00:36:00,
2013-02-28 19:41:00,29.6,24.8,29.93,North,355,2.0,2.0,82,0.00,CLR,,0.13,WeatherDisplay:10.37,2013-03-01 00:41:00,
2013-02-28 19:46:00,29.5,24.4,29.94,WNW,288,4.6,4.6,81,0.00,CLR,,0.13,WeatherDisplay:10.37,2013-03-01 00:46:00,
2013-02-28 19:51:00,29.4,24.3,29.94,NW,312,3.5,3.5,81,0.00,CLR,,0.13,WeatherDisplay:10.37,2013-03-01 00:51:00,
2013-02-28 19:56:00,29.3,24.2,29.94,WNW,288,2.0,2.0,81,0.00,CLR,,0.13,WeatherDisplay:10.37,2013-03-01 00:56:00,
2013-02-28 20:01:00,29.3,24.2,29.94,NW,314,6.9,6.9,81,0.00,CLR,,0.13,WeatherDisplay:10.37,2013-03-01 01:01:00,
2013-02-28 20:06:00,29.2,23.8,29.94,North,349,5.0,5.0,80,0.00,CLR,,0.13,WeatherDisplay:10.37,2013-03-01 01:06:00,
2013-02-28 20:11:00,29.1,23.4,29.94,NNE,24,10.0,10.0,79,0.00,CLR,,0.13,WeatherDisplay:10.37,2013-03-01 01:11:00,
2013-02-28 20:16:00,29.0,23.3,29.95,North,5,4.6,4.6,79,0.00,CLR,,0.13,WeatherDisplay:10.37,2013-03-01 01:16:00,
2013-02-28 20:21:00,29.0,23.6,29.95,NNW,340,6.9,6.9,80,0.00,CLR,,0.13,WeatherDisplay:10.37,2013-03-01 01:21:00,
2013-02-28 20:26:00,28.9,23.5,29.95,NNW,344,8.0,8.0,80,0.00,CLR,,0.13,WeatherDisplay:10.37,2013-03-01 01:26:00,
2013-02-28 20:32:00,28.9,23.5,29.95,NNW,336,6.0,6.0,80,0.00,CLR,,0.13,WeatherDisplay:10.37,2013-03-01 01:32:00,
2013-02-28 20:37:00,28.8,23.1,29.95,North,351,4.6,4.6,79,0.00,CLR,,0.13,WeatherDisplay:10.37,2013-03-01 01:37:00,
2013-02-28 20:42:00,28.8,23.1,29.95,NNW,336,6.9,6.9,79,0.00,CLR,,0.13,WeatherDisplay:10.37,2013-03-01 01:42:00,
2013-02-28 20:47:00,28.8,23.1,29.95,North,11,3.5,3.5,79,0.00,CLR,,0.13,WeatherDisplay:10.37,2013-03-01 01:47:00,
2013-02-28 20:52:00,28.8,22.5,29.95,NNE,32,4.6,4.6,77,0.00,CLR,,0.13,WeatherDisplay:10.37,2013-03-01 01:52:00,
2013-02-28 20:57:00,28.8,22.5,29.96,North,360,3.5,3.5,77,0.00,CLR,,0.13,WeatherDisplay:10.37,2013-03-01 01:57:00,
2013-02-28 21:02:00,28.8,22.5,29.96,North,355,3.5,3.5,77,0.00,CLR,,0.13,WeatherDisplay:10.37,2013-03-01 02:02:00,
2013-02-28 21:07:00,28.7,22.7,29.96,North,5,2.3,2.3,78,0.00,CLR,,0.13,WeatherDisplay:10.37,2013-03-01 02:07:00,
2013-02-28 21:12:00,28.7,22.7,29.96,North,5,10.4,10.4,78,0.00,CLR,,0.13,WeatherDisplay:10.37,2013-03-01 02:12:00,
2013-02-28 21:17:00,28.7,22.4,29.96,North,9,10.4,10.4,77,0.00,CLR,,0.13,WeatherDisplay:10.37,2013-03-01 02:17:00,
2013-02-28 21:22:00,28.7,22.1,29.96,North,360,10.4,10.4,76,0.00,CLR,,0.13,WeatherDisplay:10.37,2013-03-01 02:22:00,
2013-02-28 21:27:00,28.7,22.1,29.96,NE,56,4.6,4.6,76,0.00,CLR,,0.13,WeatherDisplay:10.37,2013-03-01 02:27:00,
2013-02-28 21:32:00,28.6,22.3,29.97,North,5,1.1,1.1,77,0.00,CLR,,0.13,WeatherDisplay:10.37,2013-03-01 02:32:00,
2013-02-28 21:37:00,28.6,22.6,29.97,NW,322,0.0,0.0,78,0.00,CLR,,0.13,WeatherDisplay:10.37,2013-03-01 02:37:00,
2013-02-28 21:42:00,28.5,22.2,29.97,NE,56,5.8,5.8,77,0.00,CLR,,0.13,WeatherDisplay:10.37,2013-03-01 02:42:00,
2013-02-28 21:47:00,28.5,22.2,29.97,NNW,338,3.5,3.5,77,0.00,CLR,,0.13,WeatherDisplay:10.37,2013-03-01 02:47:00,
2013-02-28 21:52:00,28.5,22.2,29.97,WNW,299,6.0,6.0,77,0.00,CLR,,0.13,WeatherDisplay:10.37,2013-03-01 02:52:00,
2013-02-28 21:57:00,28.5,22.2,29.97,NNW,348,0.0,0.0,77,0.00,CLR,,0.13,WeatherDisplay:10.37,2013-03-01 02:57:00,
2013-02-28 22:02:00,28.5,22.2,29.97,North,360,4.6,4.6,77,0.00,CLR,,0.13,WeatherDisplay:10.37,2013-03-01 03:02:00,
2013-02-28 22:07:00,28.5,21.9,29.97,North,5,5.8,5.8,76,0.00,CLR,,0.13,WeatherDisplay:10.37,2013-03-01 03:07:00,
2013-02-28 22:12:00,28.5,21.9,29.97,North,355,5.0,5.0,76,0.00,CLR,,0.13,WeatherDisplay:10.37,2013-03-01 03:12:00,
2013-02-28 22:17:00,28.5,21.9,29.98,NNW,348,0.0,0.0,76,0.00,CLR,,0.13,WeatherDisplay:10.37,2013-03-01 03:17:00,
2013-02-28 22:22:00,28.4,21.8,29.97,North,355,3.5,3.5,76,0.00,CLR,,0.13,WeatherDisplay:10.37,2013-03-01 03:22:00,
2013-02-28 22:27:00,28.4,21.8,29.98,NNW,334,4.6,4.6,76,0.00,CLR,,0.13,WeatherDisplay:10.37,2013-03-01 03:27:00,
2013-02-28 22:32:00,28.4,21.8,29.97,North,350,3.5,3.5,76,0.00,CLR,,0.13,WeatherDisplay:10.37,2013-03-01 03:32:00,
2013-02-28 22:37:00,28.4,21.5,29.97,North,10,11.5,11.5,75,0.00,CLR,,0.13,WeatherDisplay:10.37,2013-03-01 03:37:00,
2013-02-28 22:42:00,28.4,21.8,29.98,WNW,300,2.3,2.3,76,0.00,CLR,,0.13,WeatherDisplay:10.37,2013-03-01 03:42:00,
2013-02-28 22:47:00,28.3,22.0,29.98,NNW,328,3.0,3.0,77,0.00,CLR,,0.13,WeatherDisplay:10.37,2013-03-01 03:47:00,
2013-02-28 22:52:00,28.3,21.7,29.97,NNW,341,5.0,5.0,76,0.00,CLR,,0.13,WeatherDisplay:10.37,2013-03-01 03:52:00,
2013-02-28 22:57:00,28.2,21.3,29.97,NNW,329,12.0,12.0,75,0.00,CLR,,0.13,WeatherDisplay:10.37,2013-03-01 03:57:00,
2013-02-28 23:02:00,28.2,21.3,29.98,NE,35,6.9,6.9,75,0.00,CLR,,0.13,WeatherDisplay:10.37,2013-03-01 04:02:00,
2013-02-28 23:07:00,28.2,21.6,29.98,NNW,348,9.2,9.2,76,0.00,CLR,,0.13,WeatherDisplay:10.37,2013-03-01 04:07:00,
2013-02-28 23:12:00,28.2,21.6,29.98,North,360,4.6,4.6,76,0.00,CLR,,0.13,WeatherDisplay:10.37,2013-03-01 04:12:00,
2013-02-28 23:17:00,28.1,21.5,29.98,North,5,9.2,9.2,76,0.00,CLR,,0.13,WeatherDisplay:10.37,2013-03-01 04:17:00,
2013-02-28 23:22:00,28.1,21.5,29.98,North,355,6.0,6.0,76,0.00,CLR,,0.13,WeatherDisplay:10.37,2013-03-01 04:22:00,
2013-02-28 23:27:00,28.1,21.5,29.98,NNW,342,4.6,4.6,76,0.00,CLR,,0.13,WeatherDisplay:10.37,2013-03-01 04:27:00,
2013-02-28 23:32:00,28.1,21.8,29.98,NNW,340,0.0,0.0,77,0.00,CLR,,0.13,WeatherDisplay:10.37,2013-03-01 04:32:00,
2013-02-28 23:37:00,28.1,21.8,29.98,NNE,30,4.6,4.6,77,0.00,CLR,,0.13,WeatherDisplay:10.37,2013-03-01 04:37:00,
2013-02-28 23:42:00,28.0,22.0,29.98,NE,45,3.5,3.5,78,0.00,CLR,,0.13,WeatherDisplay:10.37,2013-03-01 04:42:00,
2013-02-28 23:47:00,27.9,21.3,29.98,North,355,12.7,12.7,76,0.00,CLR,,0.13,WeatherDisplay:10.37,2013-03-01 04:47:00,
2013-02-28 23:52:00,27.9,21.6,29.98,North,10,4.6,4.6,77,0.00,CLR,,0.13,WeatherDisplay:10.37,2013-03-01 04:52:00,
2013-02-28 23:57:00,27.8,21.5,29.98,NNE,26,2.0,2.0,77,0.00,CLR,,0.13,WeatherDisplay:10.37,2013-03-01 04:57:00,